Time;durP1;ratioP1;P1;durP2;ratioP2;P2;SDS_P1;SDS_P2;PMS_P1;PMS_P2;Temp;Humidity;BMP_temperature;BMP_pressure;BME280_temperature;BME280_humidity;BME280_pressure;Samples;Min_cycle;Max_cycle;Signal;HPM_P1;HPM_P2
2023/05/22 00:00:08;;;;;;;18.52;11.80;;;18.80;99.90;;;;;;4978317;28;20210;-33
2023/05/22 00:02:41;;;;;;;17.42;10.82;;;18.70;99.90;;;;;;4984335;28;20849;-33
2023/05/22 00:05:17;;;;;;;16.95;11.45;;;18.70;99.90;;;;;;4994431;28;20217;-33
2023/05/22 00:07:47;;;;;;;16.35;10.57;;;18.60;99.90;;;;;;4983471;28;20217;-33
2023/05/22 00:10:16;;;;;;;15.25;10.82;;;18.60;99.90;;;;;;4985138;28;20226;-33
2023/05/22 00:12:48;;;;;;;19.92;10.95;;;18.60;99.90;;;;;;4972624;28;20222;-34
2023/05/22 00:15:15;;;;;;;20.17;12.05;;;18.60;99.90;;;;;;4970424;28;20203;-34
2023/05/22 00:17:43;;;;;;;18.20;11.23;;;18.50;99.90;;;;;;4970901;28;20268;-33
2023/05/22 00:20:10;;;;;;;21.65;12.18;;;18.50;99.90;;;;;;4967272;28;20214;-34
2023/05/22 00:22:38;;;;;;;19.55;11.65;;;18.50;99.90;;;;;;4967479;28;20224;-33
2023/05/22 00:25:09;;;;;;;17.20;11.85;;;18.40;99.90;;;;;;4980564;28;20614;-33
2023/05/22 00:27:38;;;;;;;15.88;11.18;;;18.40;99.90;;;;;;4966320;28;20206;-33
2023/05/22 00:30:06;;;;;;;18.73;12.30;;;18.40;99.90;;;;;;4954992;28;20732;-33
2023/05/22 00:32:36;;;;;;;18.13;12.75;;;18.30;99.90;;;;;;4966557;28;20399;-33
2023/05/22 00:35:04;;;;;;;16.48;11.88;;;18.20;99.90;;;;;;4984799;28;20198;-33
2023/05/22 00:37:33;;;;;;;18.73;11.68;;;18.20;99.90;;;;;;4996535;28;20205;-33
2023/05/22 00:40:04;;;;;;;16.77;11.80;;;18.20;99.90;;;;;;4997124;28;20202;-33
2023/05/22 00:42:32;;;;;;;16.17;11.98;;;18.10;99.90;;;;;;4984670;28;20203;-35
2023/05/22 00:45:01;;;;;;;16.88;12.27;;;18.10;99.90;;;;;;4985101;28;20210;-35
2023/05/22 00:47:28;;;;;;;16.73;11.13;;;18.10;99.90;;;;;;4992526;28;20225;-35
2023/05/22 00:49:58;;;;;;;20.05;13.15;;;18.10;99.90;;;;;;4982490;28;20308;-35
2023/05/22 00:52:29;;;;;;;19.25;12.70;;;18.00;99.90;;;;;;4982261;28;20214;-35
2023/05/22 00:54:56;;;;;;;18.88;12.20;;;18.00;99.90;;;;;;4966307;28;20616;-35
2023/05/22 00:57:28;;;;;;;18.13;12.70;;;18.00;99.90;;;;;;4982382;28;20242;-35
2023/05/22 00:59:56;;;;;;;20.15;13.00;;;17.90;99.90;;;;;;4996564;28;20214;-35
2023/05/22 01:02:27;;;;;;;20.95;12.90;;;17.90;99.90;;;;;;4982352;28;20206;-33
2023/05/22 01:05:04;;;;;;;20.90;13.98;;;17.90;99.90;;;;;;4983430;28;20754;-34
2023/05/22 01:07:39;;;;;;;21.17;14.05;;;17.90;99.90;;;;;;4988280;28;20711;-33
2023/05/22 01:10:10;;;;;;;23.70;15.07;;;17.80;99.90;;;;;;4968384;28;21038;-33
2023/05/22 01:13:04;;;;;;;23.80;15.52;;;17.80;99.90;;;;;;4986392;28;20297;-33
2023/05/22 01:15:45;;;;;;;27.02;16.52;;;17.80;99.90;;;;;;4991424;28;20675;-33
2023/05/22 01:18:30;;;;;;;22.52;15.82;;;17.70;99.90;;;;;;4984521;28;20202;-34
2023/05/22 01:21:15;;;;;;;27.10;18.38;;;17.70;99.90;;;;;;4985556;28;20205;-33
2023/05/22 01:24:15;;;;;;;25.75;17.40;;;17.60;99.90;;;;;;4989077;28;20213;-33
2023/05/22 01:27:07;;;;;;;23.90;17.08;;;17.60;99.90;;;;;;4999167;28;20216;-34
2023/05/22 01:29:46;;;;;;;28.42;19.08;;;17.60;99.90;;;;;;4986333;28;20229;-33
2023/05/22 01:32:19;;;;;;;26.83;18.08;;;17.60;99.90;;;;;;4998185;28;20648;-33
2023/05/22 01:34:51;;;;;;;28.25;19.40;;;17.60;99.90;;;;;;4996986;28;20544;-33
2023/05/22 01:37:23;;;;;;;26.42;17.92;;;17.60;99.90;;;;;;4982523;28;20213;-33
2023/05/22 01:39:51;;;;;;;27.42;20.38;;;17.60;99.90;;;;;;4971575;28;20209;-33
2023/05/22 01:42:21;;;;;;;29.38;21.08;;;17.60;99.90;;;;;;4995768;28;20751;-33
2023/05/22 01:44:51;;;;;;;35.33;20.88;;;17.60;99.90;;;;;;4985710;28;20209;-33
2023/05/22 01:47:18;;;;;;;32.83;22.30;;;17.60;99.90;;;;;;4992293;28;20547;-33
2023/05/22 01:49:51;;;;;;;34.88;21.63;;;17.60;99.90;;;;;;4998781;28;20214;-33
2023/05/22 01:52:52;;;;;;;32.08;21.98;;;17.60;99.90;;;;;;4993464;28;20252;-34
2023/05/22 01:55:34;;;;;;;43.28;24.02;;;17.60;99.90;;;;;;4956368;28;20210;-33
2023/05/22 01:58:26;;;;;;;32.22;21.45;;;17.60;99.90;;;;;;4982643;28;20305;-33
2023/05/22 02:00:59;;;;;;;36.45;23.38;;;17.60;99.90;;;;;;4987300;28;20599;-33
2023/05/22 02:03:30;;;;;;;41.38;24.73;;;17.50;99.90;;;;;;5001040;28;20210;-33
2023/05/22 02:06:00;;;;;;;35.15;23.77;;;17.50;99.90;;;;;;4993598;28;20198;-33
2023/05/22 02:08:30;;;;;;;34.33;24.83;;;17.50;99.90;;;;;;4981125;28;20308;-33
2023/05/22 02:11:01;;;;;;;34.85;22.73;;;17.50;99.90;;;;;;4979979;28;20600;-33
2023/05/22 02:13:32;;;;;;;39.45;24.83;;;17.50;99.90;;;;;;4964825;28;20286;-33
2023/05/22 02:16:02;;;;;;;43.97;25.33;;;17.40;99.90;;;;;;4985299;28;20218;-33
2023/05/22 02:18:32;;;;;;;38.63;25.83;;;17.40;99.90;;;;;;4995658;28;20217;-33
2023/05/22 02:21:02;;;;;;;36.60;25.25;;;17.30;99.90;;;;;;4993398;28;20703;-33
2023/05/22 02:23:29;;;;;;;37.55;24.08;;;17.40;99.90;;;;;;4984761;28;20392;-33
2023/05/22 02:25:59;;;;;;;36.17;22.73;;;17.30;99.90;;;;;;4988671;28;20713;-33
2023/05/22 02:28:26;;;;;;;36.67;23.88;;;17.30;99.90;;;;;;4990389;28;20586;-34
2023/05/22 02:31:02;;;;;;;40.38;24.98;;;17.40;99.90;;;;;;4983266;28;20218;-35
2023/05/22 02:33:32;;;;;;;40.38;25.35;;;17.40;99.90;;;;;;4993953;28;20540;-36
2023/05/22 02:36:01;;;;;;;42.17;26.30;;;17.40;99.90;;;;;;4986194;28;20922;-35
2023/05/22 02:38:34;;;;;;;37.67;24.33;;;17.40;99.90;;;;;;5001438;28;20209;-35
2023/05/22 02:41:02;;;;;;;49.30;27.13;;;17.50;99.90;;;;;;4997038;28;20633;-35
2023/05/22 02:43:33;;;;;;;49.03;28.40;;;17.40;99.90;;;;;;4989467;28;20283;-35
2023/05/22 02:46:01;;;;;;;48.22;26.73;;;17.40;99.90;;;;;;5005864;28;20228;-35
2023/05/22 02:48:28;;;;;;;48.45;26.90;;;17.40;99.90;;;;;;5004680;28;20210;-35
2023/05/22 02:50:57;;;;;;;43.97;27.80;;;17.40;99.90;;;;;;4993820;28;20222;-35
2023/05/22 02:53:27;;;;;;;42.22;26.77;;;17.30;99.90;;;;;;4985442;28;20226;-35
2023/05/22 02:55:57;;;;;;;49.78;29.13;;;17.30;99.90;;;;;;4989174;28;20202;-35
2023/05/22 02:58:25;;;;;;;43.05;27.00;;;17.40;99.90;;;;;;4985049;28;20974;-35
2023/05/22 03:00:54;;;;;;;47.50;28.92;;;17.40;99.90;;;;;;5001160;28;20755;-35
2023/05/22 03:03:24;;;;;;;50.83;29.35;;;17.40;99.90;;;;;;4984396;28;20221;-35
2023/05/22 03:05:57;;;;;;;49.60;28.50;;;17.40;99.90;;;;;;4990906;28;20204;-35
2023/05/22 03:08:27;;;;;;;47.35;28.80;;;17.40;99.90;;;;;;4987821;28;20220;-35
2023/05/22 03:10:58;;;;;;;52.88;30.85;;;17.40;99.90;;;;;;4985778;28;20748;-35
2023/05/22 03:13:25;;;;;;;50.63;29.05;;;17.40;99.90;;;;;;4994594;28;20212;-35
2023/05/22 03:15:55;;;;;;;49.10;28.67;;;17.40;99.90;;;;;;5004830;28;20620;-35
2023/05/22 03:18:22;;;;;;;49.58;29.13;;;17.40;99.90;;;;;;4992992;28;20757;-35
2023/05/22 03:20:55;;;;;;;46.70;27.85;;;17.40;99.90;;;;;;4987848;28;20206;-35
2023/05/22 03:23:23;;;;;;;47.30;29.23;;;17.40;99.90;;;;;;4987821;28;20198;-35
2023/05/22 03:25:54;;;;;;;44.85;28.40;;;17.40;99.90;;;;;;4989814;28;20214;-35
2023/05/22 03:28:23;;;;;;;47.30;28.67;;;17.40;99.90;;;;;;4969131;28;20229;-35
2023/05/22 03:30:51;;;;;;;50.03;30.35;;;17.40;99.90;;;;;;4986072;28;20225;-35
2023/05/22 03:33:20;;;;;;;54.67;31.10;;;17.40;99.90;;;;;;4984786;28;20202;-35
2023/05/22 03:35:50;;;;;;;48.75;30.08;;;17.40;99.90;;;;;;5000255;28;20210;-35
2023/05/22 03:38:17;;;;;;;45.00;30.33;;;17.30;99.90;;;;;;4984203;28;20273;-35
2023/05/22 03:40:47;;;;;;;51.65;29.70;;;17.30;99.90;;;;;;4986134;28;20214;-35
2023/05/22 03:43:19;;;;;;;52.30;30.83;;;17.30;99.90;;;;;;4991699;28;20215;-35
2023/05/22 03:45:46;;;;;;;55.22;31.42;;;17.30;99.90;;;;;;4986735;28;20791;-35
2023/05/22 03:48:16;;;;;;;51.40;31.13;;;17.30;99.90;;;;;;4990379;28;20233;-35
2023/05/22 03:50:48;;;;;;;45.25;29.08;;;17.30;99.90;;;;;;5002320;28;20221;-35
2023/05/22 03:53:15;;;;;;;43.28;28.23;;;17.30;99.90;;;;;;4984101;28;20217;-35
2023/05/22 03:55:45;;;;;;;46.58;29.48;;;17.30;99.90;;;;;;4994366;28;20791;-35
2023/05/22 03:58:15;;;;;;;52.13;30.40;;;17.40;99.90;;;;;;5003657;28;20723;-35
2023/05/22 04:00:42;;;;;;;50.05;30.45;;;17.30;99.90;;;;;;4992507;28;20277;-35
2023/05/22 04:03:11;;;;;;;48.88;29.45;;;17.30;99.90;;;;;;5001830;28;20213;-35
2023/05/22 04:05:39;;;;;;;48.33;29.70;;;17.30;99.90;;;;;;4998978;28;20205;-35
2023/05/22 04:08:09;;;;;;;47.35;28.73;;;17.30;99.90;;;;;;4997969;28;20732;-35
2023/05/22 04:10:38;;;;;;;46.97;29.83;;;17.30;99.90;;;;;;4989591;28;20282;-35
2023/05/22 04:13:08;;;;;;;52.08;30.33;;;17.30;99.90;;;;;;4986101;28;20214;-35
2023/05/22 04:15:42;;;;;;;52.75;30.95;;;17.30;99.90;;;;;;4997994;28;20733;-35
2023/05/22 04:18:12;;;;;;;53.53;31.23;;;17.30;99.90;;;;;;4990413;28;20225;-35
2023/05/22 04:20:39;;;;;;;48.10;29.65;;;17.30;99.90;;;;;;4983931;28;20701;-35
2023/05/22 04:23:07;;;;;;;51.67;30.67;;;17.30;99.90;;;;;;4984906;28;20224;-36
2023/05/22 04:25:38;;;;;;;48.38;28.40;;;17.30;99.90;;;;;;4984331;28;20202;-35
2023/05/22 04:28:06;;;;;;;50.35;30.60;;;17.30;99.90;;;;;;4980214;28;20661;-35
2023/05/22 04:30:36;;;;;;;48.42;29.30;;;17.30;99.90;;;;;;4987273;28;20244;-35
2023/05/22 04:33:04;;;;;;;44.67;26.95;;;17.30;99.90;;;;;;4985230;28;20203;-35
2023/05/22 04:35:34;;;;;;;43.42;27.73;;;17.30;99.90;;;;;;4996449;28;20201;-35
2023/05/22 04:38:02;;;;;;;41.65;26.92;;;17.30;99.90;;;;;;4994638;28;20297;-35
2023/05/22 04:40:33;;;;;;;40.42;25.83;;;17.30;99.90;;;;;;4985174;28;20225;-36
2023/05/22 04:43:02;;;;;;;39.50;25.50;;;17.30;99.90;;;;;;4969933;28;20252;-35
2023/05/22 04:45:29;;;;;;;38.38;25.42;;;17.30;99.90;;;;;;4984472;28;20712;-35
2023/05/22 04:48:01;;;;;;;43.92;28.30;;;17.30;99.90;;;;;;4993330;28;20224;-39
2023/05/22 04:50:31;;;;;;;43.72;27.75;;;17.30;99.90;;;;;;4991484;28;20981;-35
2023/05/22 04:53:04;;;;;;;45.38;28.58;;;17.30;99.90;;;;;;4986554;28;20191;-35
2023/05/22 04:55:32;;;;;;;44.17;28.08;;;17.30;99.90;;;;;;4985537;28;20229;-35
2023/05/22 04:58:07;;;;;;;46.50;29.00;;;17.30;99.90;;;;;;4985700;28;20498;-35
2023/05/22 05:00:34;;;;;;;50.67;31.83;;;17.30;99.90;;;;;;4987227;28;20208;-35
2023/05/22 05:03:02;;;;;;;45.25;28.55;;;17.30;99.90;;;;;;4987185;28;20208;-35
2023/05/22 05:05:30;;;;;;;46.97;29.45;;;17.30;99.90;;;;;;4990187;28;20589;-35
2023/05/22 05:07:59;;;;;;;48.40;29.52;;;17.30;99.90;;;;;;4993667;28;20209;-35
2023/05/22 05:10:26;;;;;;;45.15;28.92;;;17.30;99.90;;;;;;4975161;28;20210;-35
2023/05/22 05:12:56;;;;;;;43.88;27.95;;;17.30;99.90;;;;;;4988866;28;20214;-35
2023/05/22 05:15:28;;;;;;;45.65;29.05;;;17.30;99.90;;;;;;4987126;28;20833;-35
2023/05/22 05:17:58;;;;;;;46.05;28.70;;;17.30;99.90;;;;;;4985225;28;20209;-35
2023/05/22 05:20:26;;;;;;;49.30;28.70;;;17.30;99.90;;;;;;4990574;28;20312;-35
2023/05/22 05:22:53;;;;;;;42.47;26.92;;;17.30;99.90;;;;;;5002426;28;20213;-35
2023/05/22 05:25:25;;;;;;;48.63;27.23;;;17.30;99.90;;;;;;4995283;28;20226;-35
2023/05/22 05:27:53;;;;;;;43.08;27.42;;;17.30;99.90;;;;;;4996874;28;20295;-33
2023/05/22 05:30:22;;;;;;;43.15;27.35;;;17.30;99.90;;;;;;4993078;28;20679;-33
2023/05/22 05:32:51;;;;;;;42.05;25.55;;;17.30;99.90;;;;;;4980975;28;20718;-33
2023/05/22 05:35:24;;;;;;;34.03;24.23;;;17.30;99.90;;;;;;4984312;28;20203;-33
2023/05/22 05:37:54;;;;;;;37.97;25.25;;;17.30;99.90;;;;;;5000466;28;20214;-34
2023/05/22 05:40:26;;;;;;;39.30;25.50;;;17.40;99.90;;;;;;4981879;28;20561;-34
2023/05/22 05:42:53;;;;;;;40.72;25.67;;;17.40;99.90;;;;;;4983263;28;20210;-34
2023/05/22 05:45:22;;;;;;;35.28;24.08;;;17.40;99.90;;;;;;4983639;28;20220;-34
2023/05/22 05:47:52;;;;;;;39.35;26.50;;;17.40;99.90;;;;;;4976911;28;20226;-34
2023/05/22 05:50:21;;;;;;;37.25;25.45;;;17.40;99.90;;;;;;4965368;28;20621;-34
2023/05/22 05:52:53;;;;;;;35.30;24.10;;;17.40;99.90;;;;;;4987217;28;20221;-33
2023/05/22 05:55:23;;;;;;;40.72;26.15;;;17.40;99.90;;;;;;4993202;28;20206;-34
2023/05/22 05:57:51;;;;;;;43.88;27.02;;;17.40;99.90;;;;;;4985915;28;20226;-34
2023/05/22 06:00:23;;;;;;;36.55;25.33;;;17.40;99.90;;;;;;4990651;28;20203;-34
2023/05/22 06:02:53;;;;;;;47.25;28.95;;;17.40;99.90;;;;;;4982837;28;20220;-34
2023/05/22 06:05:21;;;;;;;40.50;28.13;;;17.40;99.90;;;;;;5001145;28;20614;-34
2023/05/22 06:07:49;;;;;;;38.05;27.20;;;17.40;99.90;;;;;;4993983;28;20222;-34
2023/05/22 06:10:16;;;;;;;44.05;27.70;;;17.50;99.90;;;;;;4995356;28;20579;-34
2023/05/22 06:12:43;;;;;;;48.67;29.85;;;17.50;99.90;;;;;;4985072;28;20229;-34
2023/05/22 06:15:13;;;;;;;43.88;27.75;;;17.50;99.90;;;;;;4993421;28;20209;-34
2023/05/22 06:17:45;;;;;;;45.33;28.13;;;17.50;99.90;;;;;;4982256;28;20233;-34
2023/05/22 06:20:14;;;;;;;49.70;30.40;;;17.50;99.90;;;;;;4997391;28;20214;-33
2023/05/22 06:22:44;;;;;;;47.95;28.92;;;17.50;99.90;;;;;;4990411;28;20205;-34
2023/05/22 06:25:11;;;;;;;47.72;28.30;;;17.50;99.90;;;;;;4997424;28;20946;-34
2023/05/22 06:27:38;;;;;;;57.58;31.23;;;17.50;99.90;;;;;;5002000;28;20768;-34
2023/05/22 06:30:08;;;;;;;55.55;32.30;;;17.50;99.90;;;;;;4999773;28;20268;-34
2023/05/22 06:32:38;;;;;;;44.75;28.92;;;17.50;99.90;;;;;;4989189;28;20677;-33
2023/05/22 06:35:09;;;;;;;48.78;30.42;;;17.50;99.90;;;;;;4985992;28;20229;-34
2023/05/22 06:37:37;;;;;;;47.70;29.80;;;17.50;99.90;;;;;;5001862;28;20209;-34
2023/05/22 06:40:08;;;;;;;50.17;29.88;;;17.50;99.90;;;;;;4989784;28;20214;-34
2023/05/22 06:42:36;;;;;;;47.63;29.98;;;17.50;99.90;;;;;;4985119;28;20214;-34
2023/05/22 06:45:06;;;;;;;56.60;31.15;;;17.50;99.90;;;;;;5003385;28;20661;-34
2023/05/22 06:47:35;;;;;;;54.42;31.48;;;17.60;99.90;;;;;;4992796;28;20272;-34
2023/05/22 06:50:03;;;;;;;47.42;31.33;;;17.60;99.90;;;;;;4998888;28;20233;-34
2023/05/22 06:52:35;;;;;;;50.28;30.88;;;17.60;99.90;;;;;;4995205;28;20269;-34
2023/05/22 06:55:07;;;;;;;50.40;31.90;;;17.60;99.90;;;;;;4967442;28;20205;-33
2023/05/22 06:57:34;;;;;;;47.15;30.13;;;17.60;99.90;;;;;;4983498;28;20249;-35
2023/05/22 07:00:06;;;;;;;46.80;30.67;;;17.60;99.90;;;;;;4999900;28;20206;-35
2023/05/22 07:02:35;;;;;;;47.63;29.63;;;17.60;99.90;;;;;;4982487;28;20593;-35
2023/05/22 07:05:03;;;;;;;43.40;29.92;;;17.60;99.90;;;;;;4987402;28;20301;-35
2023/05/22 07:07:33;;;;;;;44.13;29.15;;;17.60;99.90;;;;;;4980524;28;20684;-35
2023/05/22 07:10:08;;;;;;;45.05;30.52;;;17.60;99.90;;;;;;4997456;28;20214;-35
2023/05/22 07:12:35;;;;;;;42.05;28.75;;;17.60;99.90;;;;;;4984279;28;20238;-35
2023/05/22 07:15:03;;;;;;;43.58;28.55;;;17.60;99.90;;;;;;4967738;28;20608;-35
2023/05/22 07:17:33;;;;;;;44.60;30.42;;;17.60;99.90;;;;;;4989292;28;20324;-35
2023/05/22 07:20:00;;;;;;;48.33;30.75;;;17.60;99.90;;;;;;4992887;28;20197;-35
2023/05/22 07:22:32;;;;;;;47.05;31.45;;;17.60;99.90;;;;;;4994928;28;20214;-35
2023/05/22 07:25:02;;;;;;;49.35;32.15;;;17.60;99.90;;;;;;4999809;28;20217;-36
2023/05/22 07:27:31;;;;;;;47.35;30.13;;;17.60;99.90;;;;;;5002995;28;20721;-35
2023/05/22 07:30:01;;;;;;;45.45;30.20;;;17.60;99.90;;;;;;4994316;28;20214;-35
2023/05/22 07:32:30;;;;;;;49.22;30.38;;;17.70;99.90;;;;;;4987415;28;20300;-35
2023/05/22 07:35:00;;;;;;;54.80;32.65;;;17.70;99.90;;;;;;4989797;28;20477;-35
2023/05/22 07:37:30;;;;;;;54.05;32.38;;;17.70;99.90;;;;;;4994844;28;20206;-35
2023/05/22 07:39:57;;;;;;;52.60;32.35;;;17.80;99.90;;;;;;4997926;28;20272;-35
2023/05/22 07:42:28;;;;;;;54.78;32.83;;;17.80;99.90;;;;;;4990846;28;20221;-35
2023/05/22 07:44:57;;;;;;;52.38;30.75;;;17.90;99.90;;;;;;5000722;28;20230;-36
2023/05/22 07:47:27;;;;;;;53.25;34.05;;;17.90;99.90;;;;;;5001358;28;20209;-35
2023/05/22 07:50:02;;;;;;;54.55;32.47;;;17.90;99.90;;;;;;4998275;28;20202;-35
2023/05/22 07:52:34;;;;;;;51.22;32.13;;;18.00;99.90;;;;;;4984161;28;20234;-35
2023/05/22 07:55:02;;;;;;;51.40;34.15;;;18.00;99.90;;;;;;4993560;28;20300;-35
2023/05/22 07:57:29;;;;;;;55.22;34.78;;;18.10;99.90;;;;;;5000617;28;20289;-35
2023/05/22 08:00:05;;;;;;;54.92;35.15;;;18.10;99.90;;;;;;4989399;28;20225;-35
2023/05/22 08:02:32;;;;;;;62.55;37.95;;;18.10;99.90;;;;;;4995195;28;20218;-35
2023/05/22 08:05:03;;;;;;;56.03;36.53;;;18.10;99.90;;;;;;4994638;28;20217;-35
2023/05/22 08:07:31;;;;;;;65.32;39.05;;;18.10;99.90;;;;;;5001692;28;20763;-35
2023/05/22 08:10:12;;;;;;;57.22;36.30;;;18.20;99.90;;;;;;5004752;28;20217;-36
2023/05/22 08:12:40;;;;;;;54.10;34.00;;;18.20;99.90;;;;;;5002483;28;20217;-36
2023/05/22 08:15:07;;;;;;;52.60;33.65;;;18.30;99.90;;;;;;4994656;28;20206;-35
2023/05/22 08:17:37;;;;;;;53.08;34.47;;;18.30;99.90;;;;;;5001724;28;20315;-36
2023/05/22 08:20:10;;;;;;;54.22;36.05;;;18.30;99.90;;;;;;4999422;28;20210;-36
2023/05/22 08:22:39;;;;;;;51.92;33.95;;;18.40;99.90;;;;;;4994430;28;20218;-36
2023/05/22 08:25:09;;;;;;;53.33;35.60;;;18.40;99.90;;;;;;4988977;28;20790;-36
2023/05/22 08:27:39;;;;;;;51.75;35.00;;;18.50;99.90;;;;;;4984058;28;20225;-36
2023/05/22 08:30:07;;;;;;;52.72;34.97;;;18.50;99.90;;;;;;4988731;28;20746;-36
2023/05/22 08:32:36;;;;;;;53.78;38.15;;;18.60;99.90;;;;;;4998387;28;20320;-35
2023/05/22 08:35:08;;;;;;;66.63;41.60;;;18.70;99.90;;;;;;4984003;28;20285;-36
2023/05/22 08:37:38;;;;;;;62.30;40.47;;;18.70;99.90;;;;;;4987433;28;20240;-36
2023/05/22 08:40:11;;;;;;;61.90;39.75;;;18.80;99.90;;;;;;4983712;28;20202;-36
2023/05/22 08:42:43;;;;;;;55.65;38.90;;;18.80;99.90;;;;;;4988445;28;20746;-36
2023/05/22 08:45:11;;;;;;;69.40;42.35;;;18.80;99.90;;;;;;4999564;28;20226;-36
2023/05/22 08:47:43;;;;;;;59.42;39.35;;;18.90;99.90;;;;;;4997402;28;20260;-36
2023/05/22 08:50:15;;;;;;;68.78;43.03;;;18.90;99.90;;;;;;5001271;28;20206;-35
2023/05/22 08:52:49;;;;;;;72.15;46.30;;;18.90;99.90;;;;;;4992850;28;20683;-36
2023/05/22 08:55:20;;;;;;;74.15;45.78;;;19.00;99.90;;;;;;4986460;28;20229;-35
2023/05/22 08:57:54;;;;;;;77.47;46.78;;;19.00;99.90;;;;;;4991731;28;20229;-35
2023/05/22 09:00:23;;;;;;;80.22;47.60;;;19.00;99.90;;;;;;5003788;28;20669;-36
2023/05/22 09:02:54;;;;;;;80.82;50.28;;;19.10;99.90;;;;;;4989862;28;20276;-35
2023/05/22 09:05:25;;;;;;;75.68;48.97;;;19.10;99.90;;;;;;4999125;28;20219;-36
2023/05/22 09:08:00;;;;;;;81.85;48.78;;;19.20;99.90;;;;;;4997828;28;20233;-36
2023/05/22 09:10:48;;;;;;;81.22;49.25;;;19.20;99.90;;;;;;4992432;28;20218;-36
2023/05/22 09:13:26;;;;;;;85.97;50.70;;;19.30;99.90;;;;;;4992007;28;20225;-36
2023/05/22 09:16:16;;;;;;;77.82;48.10;;;19.30;99.90;;;;;;4993888;28;20197;-35
2023/05/22 09:18:44;;;;;;;69.07;45.03;;;19.30;99.90;;;;;;4998520;28;20190;-35
2023/05/22 09:21:14;;;;;;;56.92;39.72;;;19.30;99.90;;;;;;4994986;28;20317;-35
2023/05/22 09:24:00;;;;;;;52.70;33.80;;;19.40;99.90;;;;;;4971686;28;20242;-35
2023/05/22 09:26:32;;;;;;;46.92;31.95;;;19.40;99.90;;;;;;4986858;28;20213;-35
2023/05/22 09:29:00;;;;;;;49.97;32.70;;;19.40;99.90;;;;;;4986995;28;20619;-35
2023/05/22 09:31:30;;;;;;;42.20;29.45;;;19.40;99.90;;;;;;4988462;28;20301;-35
2023/05/22 09:34:09;;;;;;;41.05;27.60;;;19.50;99.90;;;;;;4994568;28;20213;-35
2023/05/22 09:36:41;;;;;;;40.30;30.23;;;19.50;99.90;;;;;;4991192;28;20553;-35
2023/05/22 09:39:10;;;;;;;43.92;31.30;;;19.50;99.90;;;;;;4990809;28;20258;-35
2023/05/22 09:41:43;;;;;;;39.20;27.58;;;19.50;99.90;;;;;;4975720;28;20577;-35
2023/05/22 09:44:14;;;;;;;42.55;29.42;;;19.50;99.90;;;;;;4988136;28;20210;-35
2023/05/22 09:46:48;;;;;;;40.28;28.50;;;19.50;99.90;;;;;;4974001;28;20210;-35
2023/05/22 09:49:15;;;;;;;50.30;32.38;;;19.50;99.90;;;;;;4992225;28;20216;-35
2023/05/22 09:51:47;;;;;;;47.88;31.90;;;19.60;99.90;;;;;;4988688;28;20201;-35
2023/05/22 09:54:17;;;;;;;47.63;32.95;;;19.60;99.90;;;;;;4981042;28;20627;-35
2023/05/22 09:56:50;;;;;;;45.83;31.67;;;19.60;99.90;;;;;;4989985;28;20597;-35
2023/05/22 09:59:28;;;;;;;47.22;33.00;;;19.60;99.90;;;;;;4986551;28;20685;-35
2023/05/22 10:02:04;;;;;;;50.63;35.15;;;19.60;99.90;;;;;;4987636;28;20477;-35
2023/05/22 10:04:37;;;;;;;42.00;31.73;;;19.70;99.90;;;;;;4991339;28;20221;-35
2023/05/22 10:07:10;;;;;;;57.53;35.65;;;19.70;99.90;;;;;;4988890;28;20209;-35
2023/05/22 10:09:41;;;;;;;52.58;33.90;;;19.70;99.90;;;;;;4986273;28;20202;-36
2023/05/22 10:12:15;;;;;;;48.30;31.55;;;19.70;99.90;;;;;;4987954;28;20283;-35
2023/05/22 10:14:42;;;;;;;41.97;30.98;;;19.70;99.90;;;;;;4996377;28;20743;-35
2023/05/22 10:17:11;;;;;;;43.75;32.95;;;19.70;99.90;;;;;;4995497;28;20225;-35
2023/05/22 10:19:39;;;;;;;38.85;28.23;;;19.70;99.90;;;;;;4991533;28;20695;-35
2023/05/22 10:22:19;;;;;;;37.90;28.77;;;19.80;99.90;;;;;;4982770;28;20464;-35
2023/05/22 10:24:47;;;;;;;39.30;27.95;;;19.80;99.90;;;;;;4977685;28;20241;-35
2023/05/22 10:27:19;;;;;;;41.55;31.08;;;19.90;99.90;;;;;;4987074;28;20529;-35
2023/05/22 10:29:51;;;;;;;48.33;33.95;;;20.00;99.90;;;;;;4983607;28;20300;-35
2023/05/22 10:32:47;;;;;;;40.75;30.35;;;20.00;99.90;;;;;;4985726;28;20264;-36
2023/05/22 10:35:19;;;;;;;42.03;30.35;;;20.10;99.90;;;;;;4987878;28;20692;-35
2023/05/22 10:37:53;;;;;;;45.92;33.72;;;20.10;99.90;;;;;;4989508;28;20210;-35
2023/05/22 10:40:27;;;;;;;47.55;32.97;;;20.20;99.90;;;;;;4985170;28;20779;-35
2023/05/22 10:42:59;;;;;;;47.90;33.85;;;20.20;99.90;;;;;;4996451;28;21108;-35
2023/05/22 10:45:30;;;;;;;41.47;31.25;;;20.30;99.90;;;;;;4981710;28;20691;-35
2023/05/22 10:48:13;;;;;;;45.25;31.38;;;20.30;99.90;;;;;;4969634;28;20205;-35
2023/05/22 10:50:53;;;;;;;43.33;31.70;;;20.40;99.90;;;;;;4978530;28;20205;-35
2023/05/22 10:53:26;;;;;;;44.75;32.85;;;20.40;99.90;;;;;;4981501;28;20237;-35
2023/05/22 10:56:04;;;;;;;47.25;33.30;;;20.50;99.90;;;;;;4981473;28;20205;-35
2023/05/22 10:58:36;;;;;;;62.05;37.95;;;20.50;99.90;;;;;;4981056;28;20237;-35
2023/05/22 11:01:19;;;;;;;53.53;37.45;;;20.50;99.90;;;;;;4995952;28;20271;-35
2023/05/22 11:04:01;;;;;;;54.88;39.10;;;20.60;99.90;;;;;;4994361;28;20284;-35
2023/05/22 11:06:44;;;;;;;58.42;40.25;;;20.60;99.90;;;;;;4993733;28;20257;-35
2023/05/22 11:09:30;;;;;;;56.85;40.17;;;20.60;99.90;;;;;;4988667;28;20224;-35
2023/05/22 11:12:25;;;;;;;58.33;38.63;;;20.60;99.90;;;;;;4988031;28;20268;-35
2023/05/22 11:14:59;;;;;;;55.65;42.10;;;20.70;99.90;;;;;;4987288;28;20222;-35
2023/05/22 11:17:39;;;;;;;75.82;51.60;;;20.70;99.90;;;;;;5001490;28;20260;-35
2023/05/22 11:20:23;;;;;;;72.18;50.75;;;20.70;99.90;;;;;;4989888;28;20233;-36
2023/05/22 11:22:55;;;;;;;71.43;49.30;;;20.80;99.90;;;;;;5000259;28;20222;-35
2023/05/22 11:25:26;;;;;;;67.45;46.67;;;20.80;99.90;;;;;;4980809;28;20206;-34
2023/05/22 11:27:54;;;;;;;66.25;45.85;;;20.90;99.90;;;;;;4990820;28;20597;-35
2023/05/22 11:30:29;;;;;;;56.88;41.10;;;20.90;99.90;;;;;;4990297;28;20601;-33
2023/05/22 11:32:58;;;;;;;68.95;47.60;;;21.00;99.90;;;;;;4989815;28;20257;-33
2023/05/22 11:35:25;;;;;;;57.83;42.35;;;21.00;99.90;;;;;;4990719;28;20613;-33
2023/05/22 11:37:57;;;;;;;53.83;39.88;;;21.10;99.90;;;;;;4989750;28;20687;-33
2023/05/22 11:40:28;;;;;;;51.35;38.10;;;21.10;99.90;;;;;;4987354;28;20765;-33
2023/05/22 11:42:56;;;;;;;46.42;35.05;;;21.20;99.90;;;;;;4989012;28;20241;-33
2023/05/22 11:45:26;;;;;;;45.25;33.60;;;21.20;99.90;;;;;;4990209;28;20272;-33
2023/05/22 11:47:56;;;;;;;41.92;30.75;;;21.20;99.90;;;;;;4992597;28;20218;-33
2023/05/22 11:50:25;;;;;;;44.42;34.10;;;21.30;99.90;;;;;;4985596;28;20210;-33
2023/05/22 11:53:14;;;;;;;48.85;36.17;;;21.30;99.90;;;;;;4987470;28;20310;-33
2023/05/22 11:55:46;;;;;;;48.83;32.60;;;21.30;99.90;;;;;;4994151;28;20194;-33
2023/05/22 11:58:17;;;;;;;49.15;36.03;;;21.30;99.90;;;;;;4992815;28;20245;-33
2023/05/22 12:00:46;;;;;;;51.47;36.33;;;21.30;99.90;;;;;;4984676;28;20255;-34
2023/05/22 12:03:14;;;;;;;48.28;35.08;;;21.30;99.90;;;;;;4994171;28;20661;-35
2023/05/22 12:05:46;;;;;;;52.22;36.42;;;21.30;99.90;;;;;;4996688;28;20213;-34
2023/05/22 12:08:18;;;;;;;48.53;35.28;;;21.40;99.90;;;;;;4996192;28;20209;-34
2023/05/22 12:10:49;;;;;;;60.55;41.13;;;21.40;99.90;;;;;;4992967;28;20201;-34
2023/05/22 12:13:29;;;;;;;60.17;42.25;;;21.40;99.90;;;;;;4998212;28;20310;-34
2023/05/22 12:16:01;;;;;;;69.70;46.17;;;21.40;99.90;;;;;;4995720;28;20217;-34
2023/05/22 12:18:36;;;;;;;73.78;47.40;;;21.40;99.90;;;;;;4988702;28;20202;-34
2023/05/22 12:21:06;;;;;;;71.43;48.13;;;21.40;99.90;;;;;;4990287;28;20209;-37
2023/05/22 12:23:48;;;;;;;66.35;46.45;;;21.50;99.90;;;;;;4992756;28;20198;-34
2023/05/22 12:26:20;;;;;;;71.30;48.63;;;21.50;99.90;;;;;;4990037;28;20676;-34
2023/05/22 12:28:54;;;;;;;71.75;48.53;;;21.60;99.90;;;;;;4977772;28;20609;-35
2023/05/22 12:31:22;;;;;;;63.40;45.20;;;21.60;99.90;;;;;;4989298;28;20206;-36
2023/05/22 12:33:53;;;;;;;65.97;46.13;;;21.60;99.90;;;;;;4987137;28;20236;-34
2023/05/22 12:36:37;;;;;;;60.35;44.20;;;21.60;99.90;;;;;;4988617;28;20221;-34
2023/05/22 12:39:16;;;;;;;59.22;43.17;;;21.70;99.90;;;;;;4990123;28;20668;-34
2023/05/22 12:41:49;;;;;;;54.22;41.75;;;21.70;99.90;;;;;;4987423;28;20708;-34
2023/05/22 12:44:19;;;;;;;60.58;42.92;;;21.80;99.90;;;;;;4992692;28;20206;-34
2023/05/22 12:46:46;;;;;;;57.22;40.97;;;21.80;99.90;;;;;;4984151;28;20315;-34
2023/05/22 12:49:14;;;;;;;61.17;40.92;;;21.80;99.90;;;;;;4983334;28;20222;-34